Time;durP1;ratioP1;P1;durP2;ratioP2;P2;SDS_P1;SDS_P2;PMS_P1;PMS_P2;Temp;Humidity;BMP_temperature;BMP_pressure;BME280_temperature;BME280_humidity;BME280_pressure;Samples;Min_cycle;Max_cycle;Signal;HPM_P1;HPM_P2
2022/08/23 00:00:36;;;;;;;30.95;8.63;;;;;;;15.29;100.00;97998.69;5010386;28;20403;-53
2022/08/23 00:03:02;;;;;;;36.35;9.30;;;;;;;15.18;100.00;97994.94;5010316;28;20180;-53
2022/08/23 00:05:27;;;;;;;33.88;9.18;;;;;;;15.48;100.00;97994.03;5005585;28;20102;-53
2022/08/23 00:07:52;;;;;;;48.63;10.63;;;;;;;15.49;100.00;97990.44;5006823;28;20030;-53
2022/08/23 00:10:18;;;;;;;35.90;9.00;;;;;;;15.35;100.00;97993.09;5010377;28;20068;-53
2022/08/23 00:12:44;;;;;;;41.20;9.65;;;;;;;15.16;100.00;97988.94;5011551;28;20021;-52
2022/08/23 00:15:13;;;;;;;33.00;8.50;;;;;;;15.12;100.00;98002.34;5010187;28;20084;-54
2022/08/23 00:17:40;;;;;;;40.20;9.35;;;;;;;15.19;100.00;97998.41;5010435;28;20027;-53
2022/08/23 00:20:10;;;;;;;49.13;10.52;;;;;;;15.64;100.00;97993.94;5008075;28;20112;-53
2022/08/23 00:22:38;;;;;;;34.00;8.32;;;;;;;15.83;100.00;97992.84;5010766;28;20038;-52
2022/08/23 00:25:06;;;;;;;39.13;9.13;;;;;;;15.67;100.00;97992.91;5010188;28;20029;-53
2022/08/23 00:27:32;;;;;;;35.45;8.80;;;;;;;15.18;100.00;97996.72;5009567;28;20111;-53
2022/08/23 00:29:58;;;;;;;37.83;9.52;;;;;;;14.94;100.00;97999.00;5010196;28;20510;-52
2022/08/23 00:32:27;;;;;;;37.83;9.38;;;;;;;14.95;100.00;98004.19;5010640;28;20144;-53
2022/08/23 00:34:53;;;;;;;39.55;9.10;;;;;;;15.10;100.00;98002.44;5011585;28;20545;-53
2022/08/23 00:37:19;;;;;;;44.78;9.75;;;;;;;14.79;100.00;98000.75;5013360;28;20030;-53
2022/08/23 00:39:45;;;;;;;43.42;9.65;;;;;;;14.83;100.00;98008.38;5010699;28;20599;-53
2022/08/23 00:47:41;;;;;;;39.63;9.90;;;;;;;14.91;100.00;97999.22;5008795;28;20692;-53
2022/08/23 00:50:29;;;;;;;48.50;11.00;;;;;;;15.16;100.00;97998.59;5009978;28;20025;-53
2022/08/23 00:52:55;;;;;;;39.38;9.77;;;;;;;15.13;100.00;97989.13;5011956;28;20029;-53
2022/08/23 00:55:20;;;;;;;49.80;10.05;;;;;;;14.94;100.00;97999.00;5012573;28;20068;-53
2022/08/23 00:57:46;;;;;;;38.28;9.00;;;;;;;15.59;100.00;97991.59;5011766;28;20092;-53
2022/08/23 01:00:13;;;;;;;45.53;10.27;;;;;;;15.50;100.00;97986.91;5015576;28;20113;-52
2022/08/23 01:02:40;;;;;;;34.00;8.15;;;;;;;15.65;100.00;97986.91;5010888;28;20025;-53
2022/08/23 01:05:06;;;;;;;37.28;9.82;;;;;;;15.04;100.00;97989.66;5012704;28;20048;-53
2022/08/23 01:07:50;;;;;;;41.97;9.80;;;;;;;14.75;100.00;98004.50;5012993;28;20037;-52
2022/08/23 01:10:27;;;;;;;38.67;10.07;;;;;;;15.02;100.00;98018.66;5012393;28;20025;-53
2022/08/23 01:12:59;;;;;;;30.75;8.70;;;;;;;14.90;100.00;98015.91;5011860;28;20029;-53
2022/08/23 01:15:42;;;;;;;43.70;9.93;;;;;;;15.09;100.00;98003.38;5013641;28;20144;-53
2022/08/23 01:18:12;;;;;;;46.25;10.57;;;;;;;14.65;100.00;98018.16;5014161;28;20036;-52
2022/08/23 01:21:00;;;;;;;43.95;10.18;;;;;;;14.84;100.00;98025.81;5011066;28;20069;-53
2022/08/23 01:23:40;;;;;;;35.90;9.07;;;;;;;14.89;100.00;98027.31;5012562;28;20188;-53
2022/08/23 01:26:07;;;;;;;38.50;9.75;;;;;;;14.82;100.00;98018.97;5013285;28;20042;-52
2022/08/23 01:28:33;;;;;;;38.90;9.88;;;;;;;14.92;100.00;98020.09;5014342;28;20106;-52
2022/08/23 01:30:59;;;;;;;37.30;10.07;;;;;;;14.83;100.00;98018.88;5013445;28;20518;-53
2022/08/23 01:33:25;;;;;;;39.25;9.30;;;;;;;15.00;100.00;98023.16;5013753;28;20036;-53
2022/08/23 01:35:54;;;;;;;37.85;9.13;;;;;;;15.30;100.00;98022.25;5012465;28;20071;-53
2022/08/23 01:38:21;;;;;;;40.60;9.82;;;;;;;14.58;100.00;98029.09;5011796;28;20029;-52
2022/08/23 01:40:47;;;;;;;48.67;10.90;;;;;;;14.89;100.00;98027.31;5012251;28;20073;-54
2022/08/23 01:43:14;;;;;;;35.05;9.02;;;;;;;14.93;100.00;98019.19;5011626;28;20503;-52
2022/08/23 01:45:41;;;;;;;43.63;9.30;;;;;;;15.09;100.00;98028.78;5008136;28;20042;-52
2022/08/23 01:48:06;;;;;;;37.15;8.38;;;;;;;14.86;100.00;98028.34;5034100;28;20037;-53
2022/08/23 01:50:32;;;;;;;37.00;8.85;;;;;;;15.07;100.00;98031.53;5010390;28;20073;-52
2022/08/23 01:52:58;;;;;;;35.97;8.82;;;;;;;14.94;100.00;98025.28;5012343;28;20360;-52
2022/08/23 01:55:24;;;;;;;36.88;8.93;;;;;;;14.80;100.00;98024.31;5010986;28;20094;-52
2022/08/23 01:57:54;;;;;;;42.83;9.38;;;;;;;14.76;100.00;98025.44;5012122;28;20030;-52
2022/08/23 02:00:24;;;;;;;46.25;10.43;;;;;;;14.63;100.00;98022.66;5010973;28;20029;-53
2022/08/23 02:02:50;;;;;;;49.65;11.15;;;;;;;14.32;100.00;98030.50;5013133;28;20097;-53
2022/08/23 02:05:15;;;;;;;42.28;10.77;;;;;;;14.00;100.00;98036.59;5010038;28;20112;-53
2022/08/23 02:07:41;;;;;;;42.45;9.90;;;;;;;14.32;100.00;98028.75;5011602;28;20013;-52
2022/08/23 02:10:08;;;;;;;43.78;9.15;;;;;;;15.17;100.00;98037.91;5010405;28;20039;-52
2022/08/23 02:12:33;;;;;;;40.90;9.73;;;;;;;14.78;100.00;98026.19;5013759;28;20697;-52
2022/08/23 02:14:59;;;;;;;55.13;11.15;;;;;;;14.19;100.00;98030.34;5012016;28;20025;-53
2022/08/23 02:17:24;;;;;;;37.75;9.25;;;;;;;14.28;100.00;98037.75;5011619;28;20037;-53
2022/08/23 02:19:50;;;;;;;37.10;9.43;;;;;;;14.27;100.00;98030.78;5011872;28;20021;-53
2022/08/23 02:22:15;;;;;;;38.28;8.57;;;;;;;14.60;100.00;98035.09;5012288;28;20048;-52
2022/08/23 02:24:43;;;;;;;42.88;9.70;;;;;;;14.55;100.00;98031.84;5012570;28;20064;-53
2022/08/23 02:27:10;;;;;;;42.83;9.63;;;;;;;14.36;100.00;98035.53;5011871;28;20403;-52
2022/08/23 02:29:36;;;;;;;39.80;9.65;;;;;;;14.12;100.00;98031.66;5010219;28;20083;-53
2022/08/23 02:32:03;;;;;;;39.72;9.75;;;;;;;14.23;100.00;98042.38;5013238;28;20045;-52
2022/08/23 02:34:30;;;;;;;41.78;10.52;;;;;;;14.01;100.00;98035.69;5011839;28;20100;-53
2022/08/23 02:36:56;;;;;;;40.55;10.55;;;;;;;13.82;100.00;98034.97;5008852;28;20113;-53
2022/08/23 02:39:22;;;;;;;48.45;10.88;;;;;;;14.08;100.00;98026.56;5012646;28;20591;-53
2022/08/23 02:41:48;;;;;;;42.20;10.30;;;;;;;14.33;100.00;98027.81;5010534;28;20045;-54
2022/08/23 02:44:15;;;;;;;47.65;10.18;;;;;;;14.62;100.00;98028.81;5013563;28;20355;-52
2022/08/23 02:46:41;;;;;;;34.65;9.50;;;;;;;14.30;100.00;98020.13;5010952;28;20073;-53
2022/08/23 02:49:07;;;;;;;39.53;9.60;;;;;;;14.03;100.00;98025.94;5009869;28;20034;-53
2022/08/23 02:51:33;;;;;;;44.20;10.38;;;;;;;14.08;100.00;98026.56;5009206;28;20034;-53
2022/08/23 02:53:58;;;;;;;42.60;10.18;;;;;;;14.12;100.00;98021.16;5010915;28;20040;-52
2022/08/23 02:56:23;;;;;;;50.10;10.50;;;;;;;14.24;100.00;98026.56;5010979;28;20586;-52
2022/08/23 02:58:50;;;;;;;42.95;10.35;;;;;;;13.81;100.00;98033.31;5011351;28;20034;-53
2022/08/23 03:01:23;;;;;;;44.63;9.45;;;;;;;14.17;100.00;98032.22;5008444;28;20550;-52
2022/08/23 03:03:49;;;;;;;41.83;10.15;;;;;;;13.79;100.00;98024.69;5014184;28;20049;-53
2022/08/23 03:06:15;;;;;;;41.63;9.90;;;;;;;14.04;100.00;98024.16;5032915;28;20034;-53
2022/08/23 03:08:42;;;;;;;40.15;9.85;;;;;;;13.83;100.00;98028.81;5010794;28;20029;-52
2022/08/23 03:11:13;;;;;;;36.45;9.95;;;;;;;13.88;100.00;98032.88;5011301;28;20069;-53
2022/08/23 03:13:40;;;;;;;36.40;8.70;;;;;;;13.99;100.00;98028.84;5009523;28;20158;-52
2022/08/23 03:16:07;;;;;;;41.00;9.63;;;;;;;13.86;100.00;98034.75;5010372;28;20092;-53
2022/08/23 03:18:34;;;;;;;50.47;10.65;;;;;;;13.66;100.00;98041.03;5010673;28;20103;-53
2022/08/23 03:21:00;;;;;;;43.38;9.95;;;;;;;14.15;100.00;98044.56;5010121;28;20041;-53
2022/08/23 03:23:25;;;;;;;39.80;9.82;;;;;;;13.80;100.00;98035.09;5011212;28;20439;-52
2022/08/23 03:25:51;;;;;;;46.35;9.30;;;;;;;14.39;100.00;98034.50;5007640;28;20037;-53
2022/08/23 03:28:16;;;;;;;44.08;10.13;;;;;;;13.80;100.00;98031.59;5011973;28;20073;-52
2022/08/23 03:30:42;;;;;;;43.63;10.52;;;;;;;13.83;100.00;98031.44;5010527;28;20303;-53
2022/08/23 03:33:07;;;;;;;38.17;9.82;;;;;;;13.94;100.00;98044.81;5011642;28;20117;-53
2022/08/23 03:35:33;;;;;;;39.90;10.75;;;;;;;13.53;100.00;98044.38;5011298;28;20033;-53
2022/08/23 03:37:58;;;;;;;42.97;10.23;;;;;;;13.55;100.00;98035.53;5013007;28;20026;-53
2022/08/23 03:40:24;;;;;;;41.83;9.65;;;;;;;13.77;100.00;98031.78;5007857;28;20034;-53
2022/08/23 03:42:50;;;;;;;37.28;10.18;;;;;;;13.93;100.00;98032.66;5009948;28;20034;-53
2022/08/23 03:45:17;;;;;;;40.47;10.02;;;;;;;13.96;100.00;98036.88;5011653;28;20699;-52
2022/08/23 03:47:43;;;;;;;35.53;9.35;;;;;;;13.68;100.00;98033.94;5011628;28;20033;-53
2022/08/23 03:50:08;;;;;;;42.70;10.70;;;;;;;13.57;100.00;98046.78;5012126;28;20116;-53
2022/08/23 03:52:34;;;;;;;41.33;9.93;;;;;;;13.52;100.00;98038.31;5011429;28;20492;-53
2022/08/23 03:54:59;;;;;;;43.30;10.10;;;;;;;13.53;100.00;98037.38;5010026;28;20068;-53
2022/08/23 03:57:24;;;;;;;37.53;9.07;;;;;;;13.62;100.00;98043.91;5010275;28;20038;-52
2022/08/23 03:59:50;;;;;;;40.95;9.40;;;;;;;13.45;100.00;98042.16;5008927;28;20029;-53
2022/08/23 04:02:15;;;;;;;36.45;9.13;;;;;;;13.53;100.00;98041.75;5010237;28;20057;-53
2022/08/23 04:04:41;;;;;;;32.10;8.23;;;;;;;13.36;100.00;98043.50;5009657;28;20049;-53
2022/08/23 04:07:08;;;;;;;44.90;9.63;;;;;;;13.15;100.00;98037.56;5010462;28;20046;-53
2022/08/23 04:09:33;;;;;;;34.13;8.68;;;;;;;13.17;100.00;98038.31;5009786;28;20101;-52
2022/08/23 04:11:58;;;;;;;52.08;10.73;;;;;;;12.88;100.00;98043.25;5010171;28;20196;-53
2022/08/23 04:14:25;;;;;;;36.35;9.52;;;;;;;13.02;100.00;98039.09;5011239;28;20029;-53
2022/08/23 04:16:51;;;;;;;34.65;9.60;;;;;;;13.03;100.00;98040.78;5011690;28;20055;-53
2022/08/23 04:19:16;;;;;;;41.08;10.18;;;;;;;12.83;100.00;98050.50;5008641;28;20022;-53
2022/08/23 04:21:47;;;;;;;36.92;9.70;;;;;;;13.01;100.00;98053.97;5012016;28;20045;-52
2022/08/23 04:24:13;;;;;;;44.47;10.32;;;;;;;13.11;100.00;98046.50;5006926;28;20086;-53
2022/08/23 04:26:39;;;;;;;42.67;10.20;;;;;;;13.10;100.00;98050.91;5009752;28;20061;-52
2022/08/23 04:29:04;;;;;;;40.58;10.63;;;;;;;13.13;100.00;98052.50;5011352;28;20111;-52
2022/08/23 04:31:32;;;;;;;44.88;10.18;;;;;;;13.28;100.00;98056.94;5011677;28;20033;-53
2022/08/23 04:33:58;;;;;;;41.33;10.25;;;;;;;13.12;100.00;98056.03;5012514;28;20040;-53
2022/08/23 04:36:24;;;;;;;43.22;10.90;;;;;;;13.17;100.00;98053.19;5013678;28;20033;-53
2022/08/23 04:38:50;;;;;;;41.60;10.27;;;;;;;13.29;100.00;98069.13;5012790;28;20036;-52
2022/08/23 04:44:00;;;;;;;40.88;9.43;;;;;;;13.40;100.00;98075.59;5013960;28;20605;-55
2022/08/23 04:46:26;;;;;;;49.42;10.80;;;;;;;13.59;100.00;98073.75;5012991;28;20038;-52
2022/08/23 04:48:52;;;;;;;36.08;9.07;;;;;;;13.74;100.00;98076.50;5014369;28;20415;-52
2022/08/23 04:51:18;;;;;;;39.15;9.48;;;;;;;13.64;100.00;98074.34;5011715;28;20527;-57
2022/08/23 04:53:44;;;;;;;34.92;9.55;;;;;;;13.46;100.00;98080.56;5012985;28;20025;-53
2022/08/23 04:56:10;;;;;;;40.10;9.10;;;;;;;13.60;100.00;98085.06;5013404;28;20101;-53
2022/08/23 04:58:37;;;;;;;38.08;9.32;;;;;;;14.01;100.00;98079.44;5015167;28;20399;-52
2022/08/23 05:01:06;;;;;;;44.08;10.02;;;;;;;13.46;100.00;98085.78;5014403;28;20054;-52
2022/08/23 05:03:33;;;;;;;46.53;9.82;;;;;;;13.89;100.00;98088.78;5014213;28;20025;-52
2022/08/23 05:05:59;;;;;;;40.38;9.50;;;;;;;14.06;100.00;98087.88;5013078;28;20635;-53
2022/08/23 05:08:25;;;;;;;39.83;9.30;;;;;;;14.18;100.00;98102.13;5014527;28;20021;-53
2022/08/23 05:10:50;;;;;;;41.10;9.80;;;;;;;14.19;100.00;98098.56;5013389;28;20095;-53
2022/08/23 05:13:16;;;;;;;33.63;8.48;;;;;;;14.29;100.00;98096.28;5014687;28;20112;-53
2022/08/23 05:15:42;;;;;;;43.10;9.95;;;;;;;14.90;100.00;98098.16;5012583;28;20049;-52
2022/08/23 05:18:07;;;;;;;34.97;8.68;;;;;;;15.05;100.00;98096.41;5013305;28;20434;-53
2022/08/23 05:20:33;;;;;;;34.38;7.18;;;;;;;15.52;100.00;98100.69;5012900;28;20594;-52
2022/08/23 05:22:59;;;;;;;35.47;8.77;;;;;;;15.09;100.00;98092.69;5014247;28;20433;-52
2022/08/23 05:25:48;;;;;;;32.53;8.60;;;;;;;14.75;100.00;98101.66;5012095;28;20033;-52
2022/08/23 05:28:10;;;;;;;33.35;7.93;;;;;;;15.27;100.00;98095.19;5013766;28;20390;-52
2022/08/23 05:30:36;;;;;;;38.22;9.15;;;;;;;14.98;100.00;98100.31;5012481;28;20037;-53
2022/08/23 05:33:01;;;;;;;31.23;8.18;;;;;;;15.41;100.00;98100.47;5011156;28;20025;-53
2022/08/23 05:35:26;;;;;;;32.78;8.75;;;;;;;15.57;100.00;98097.78;5012593;28;20065;-53
2022/08/23 05:37:52;;;;;;;49.22;9.73;;;;;;;15.68;100.00;98089.22;5011280;28;20025;-52
2022/08/23 05:40:17;;;;;;;38.10;8.38;;;;;;;15.89;100.00;98093.22;5011820;28;20362;-53
2022/08/23 05:42:43;;;;;;;38.13;8.45;;;;;;;16.47;100.00;98080.84;5013159;28;20037;-53
2022/08/23 05:45:09;;;;;;;32.00;7.63;;;;;;;19.30;100.00;98073.66;5012229;28;20100;-53
2022/08/23 05:47:34;;;;;;;31.17;7.40;;;;;;;20.04;100.00;98052.13;5017990;28;20044;-53
2022/08/23 05:50:00;;;;;;;40.22;8.27;;;;;;;21.05;100.00;98043.09;5012730;28;20029;-53
2022/08/23 05:52:26;;;;;;;28.73;7.05;;;;;;;20.37;100.00;98048.56;5011013;28;20048;-53
2022/08/23 05:54:51;;;;;;;28.10;6.65;;;;;;;22.19;100.00;98041.34;5012243;28;20017;-54
2022/08/23 05:57:17;;;;;;;31.67;7.03;;;;;;;23.33;100.00;98043.59;5010504;28;20502;-51
2022/08/23 05:59:42;;;;;;;27.45;6.90;;;;;;;24.47;100.00;98046.16;5011718;28;20034;-52
2022/08/23 06:02:08;;;;;;;33.50;7.40;;;;;;;23.68;100.00;98049.13;5011322;28;20467;-53
2022/08/23 06:04:33;;;;;;;26.15;6.93;;;;;;;23.68;100.00;98054.44;5012844;28;20196;-51
2022/08/23 06:06:59;;;;;;;30.02;7.32;;;;;;;22.64;100.00;98054.19;5011191;28;20033;-51
2022/08/23 06:09:25;;;;;;;24.65;6.50;;;;;;;22.38;100.00;98053.03;5012685;28;20381;-53
2022/08/23 06:11:51;;;;;;;26.63;6.47;;;;;;;22.80;100.00;98053.66;5009606;28;20120;-51
2022/08/23 06:14:16;;;;;;;28.15;6.60;;;;;;;23.23;100.00;98055.09;5013959;28;20120;-51
2022/08/23 06:16:45;;;;;;;24.13;6.13;;;;;;;23.79;100.00;98053.47;5014639;28;20137;-51
2022/08/23 06:19:11;;;;;;;22.23;6.15;;;;;;;23.99;100.00;98050.75;5013434;28;20059;-51
2022/08/23 06:21:37;;;;;;;26.35;6.18;;;;;;;24.10;100.00;98052.38;5011721;28;20585;-55
2022/08/23 06:24:04;;;;;;;21.30;5.90;;;;;;;25.41;95.03;98053.72;4996371;28;20054;-51
2022/08/23 06:26:32;;;;;;;24.70;6.63;;;;;;;25.05;100.00;98058.22;5012444;28;20395;-50
2022/08/23 06:29:01;;;;;;;21.80;5.93;;;;;;;25.30;88.37;98056.66;5013025;28;20091;-51
2022/08/23 06:31:47;;;;;;;24.65;6.38;;;;;;;25.76;89.41;98058.13;5012883;28;20464;-51
2022/08/23 06:34:22;;;;;;;17.73;5.35;;;;;;;27.44;70.31;98045.75;5012463;28;20426;-52
2022/08/23 06:36:51;;;;;;;17.65;5.30;;;;;;;27.40;62.71;98052.44;5014054;28;20236;-51
2022/08/23 06:39:18;;;;;;;19.38;5.70;;;;;;;26.75;74.52;98055.06;5012551;28;20048;-52
2022/08/23 06:41:44;;;;;;;13.43;4.70;;;;;;;28.37;60.79;98054.22;5010178;28;20053;-51
2022/08/23 06:44:10;;;;;;;19.40;5.25;;;;;;;29.88;54.78;98059.00;5012797;28;20041;-52
2022/08/23 06:46:37;;;;;;;19.70;5.50;;;;;;;29.46;57.52;98056.88;5009204;28;20042;-52
2022/08/23 06:49:04;;;;;;;17.20;5.13;;;;;;;30.21;54.08;98055.94;5013122;28;20026;-52
2022/08/23 06:51:36;;;;;;;12.95;4.70;;;;;;;30.14;52.81;98055.88;5012472;28;20128;-51
2022/08/23 06:54:06;;;;;;;18.15;5.03;;;;;;;32.06;46.72;98057.16;5010926;28;20030;-52
2022/08/23 06:56:32;;;;;;;11.95;4.28;;;;;;;30.96;49.02;98059.34;5012426;28;20053;-52
2022/08/23 06:58:58;;;;;;;12.30;4.10;;;;;;;32.52;44.76;98059.22;5011610;28;20187;-52
2022/08/23 07:01:32;;;;;;;14.90;4.82;;;;;;;28.82;56.17;98052.66;5007599;28;20060;-52
2022/08/23 07:03:59;;;;;;;12.50;4.18;;;;;;;32.72;45.86;98053.91;5008967;28;20060;-54
2022/08/23 07:06:27;;;;;;;11.80;4.38;;;;;;;30.91;48.62;98054.53;5012147;28;20578;-53
2022/08/23 07:08:53;;;;;;;10.38;3.78;;;;;;;33.81;41.81;98057.34;5013725;28;20032;-53
2022/08/23 07:11:20;;;;;;;9.77;3.80;;;;;;;33.80;41.09;98056.50;5012248;28;20041;-54
2022/08/23 07:13:47;;;;;;;12.80;4.47;;;;;;;32.30;43.03;98063.91;5015893;28;20250;-55
2022/08/23 07:16:16;;;;;;;10.07;3.70;;;;;;;33.60;40.29;98058.34;5015647;28;20201;-54
2022/08/23 07:18:42;;;;;;;10.85;3.78;;;;;;;34.17;37.51;98058.75;5013567;28;20092;-54
2022/08/23 07:21:07;;;;;;;10.85;3.90;;;;;;;34.78;36.11;98056.59;5013345;28;20053;-53
2022/08/23 07:23:33;;;;;;;9.75;3.50;;;;;;;35.14;35.46;98061.38;5015040;28;20029;-54
2022/08/23 07:26:01;;;;;;;9.43;3.67;;;;;;;35.96;34.92;98065.94;5015320;28;20064;-53
2022/08/23 07:28:28;;;;;;;9.75;3.53;;;;;;;35.30;35.25;98062.75;5015461;28;20090;-53
2022/08/23 07:30:54;;;;;;;15.88;3.90;;;;;;;36.37;33.89;98068.00;5014706;28;20041;-52
2022/08/23 07:33:21;;;;;;;10.77;3.40;;;;;;;34.21;36.41;98065.38;5013899;28;20041;-53
2022/08/23 07:35:50;;;;;;;13.23;4.07;;;;;;;35.09;35.59;98070.19;5012438;28;20064;-52
2022/08/23 07:38:17;;;;;;;9.73;3.20;;;;;;;35.50;35.84;98074.25;5015520;28;20041;-53
2022/08/23 07:40:43;;;;;;;7.70;3.15;;;;;;;35.43;36.06;98072.66;5011929;28;20113;-52
2022/08/23 07:43:09;;;;;;;12.05;3.50;;;;;;;35.11;34.55;98070.78;5011568;28;20030;-52
2022/08/23 07:45:36;;;;;;;8.25;3.28;;;;;;;36.07;33.58;98073.34;5014342;28;20495;-54
2022/08/23 07:48:02;;;;;;;11.30;3.60;;;;;;;35.97;33.55;98070.31;5013918;28;20037;-54
2022/08/23 07:50:28;;;;;;;7.90;3.28;;;;;;;36.11;33.30;98068.28;5013259;28;20548;-55
2022/08/23 07:52:54;;;;;;;9.00;3.63;;;;;;;35.44;33.07;98075.16;5034052;28;20033;-53
2022/08/23 07:55:20;;;;;;;7.47;3.17;;;;;;;35.57;32.64;98068.78;5013875;28;20041;-53
2022/08/23 07:57:45;;;;;;;10.15;3.20;;;;;;;36.09;32.60;98069.31;5015894;28;20649;-54
2022/08/23 08:00:11;;;;;;;10.85;4.25;;;;;;;33.57;36.83;98067.72;5011561;28;20048;-53
2022/08/23 08:02:36;;;;;;;9.77;3.60;;;;;;;34.72;34.92;98069.13;5013437;28;20026;-53
2022/08/23 08:05:02;;;;;;;10.70;4.07;;;;;;;34.35;34.82;98066.16;5017143;28;20068;-53
2022/08/23 08:07:27;;;;;;;7.82;3.20;;;;;;;33.68;34.06;98062.78;5016489;28;20686;-53
2022/08/23 08:09:53;;;;;;;11.63;3.63;;;;;;;34.09;33.21;98067.06;5017373;28;20026;-52
2022/08/23 08:12:18;;;;;;;9.68;3.50;;;;;;;37.45;30.85;98061.91;5015760;28;20030;-52
2022/08/23 08:14:47;;;;;;;8.98;3.42;;;;;;;36.09;32.16;98066.63;5016566;28;20055;-54
2022/08/23 08:17:12;;;;;;;11.70;3.47;;;;;;;35.80;31.45;98078.19;5017428;28;20041;-53
2022/08/23 08:19:38;;;;;;;10.60;3.38;;;;;;;34.74;32.72;98073.31;5016145;28;20044;-53
2022/08/23 08:22:04;;;;;;;9.82;3.03;;;;;;;36.35;30.09;98075.53;5017375;28;20041;-55
2022/08/23 08:24:29;;;;;;;8.77;2.90;;;;;;;35.42;30.27;98077.25;5015219;28;20033;-53
2022/08/23 08:26:55;;;;;;;13.27;3.13;;;;;;;35.84;29.88;98080.25;5015889;28;20034;-53
2022/08/23 08:29:20;;;;;;;11.05;3.50;;;;;;;36.23;29.40;98078.19;5016951;28;20067;-53
2022/08/23 08:31:46;;;;;;;11.15;3.40;;;;;;;38.08;27.38;98076.72;5016637;28;20033;-52
2022/08/23 08:34:13;;;;;;;10.48;3.38;;;;;;;32.29;34.02;98075.72;5015362;28;20080;-52
2022/08/23 08:36:44;;;;;;;9.13;2.80;;;;;;;35.74;30.69;98082.63;5016792;28;20108;-52
2022/08/23 08:39:14;;;;;;;9.75;3.17;;;;;;;36.05;29.91;98080.88;5017265;28;20543;-54
2022/08/23 08:42:05;;;;;;;10.52;3.17;;;;;;;34.85;30.03;98079.06;5016346;28;20091;-53
2022/08/23 08:44:46;;;;;;;12.23;3.45;;;;;;;37.77;28.47;98081.47;5014519;28;20056;-52
2022/08/23 08:47:19;;;;;;;11.75;3.28;;;;;;;36.35;28.31;98080.16;5015142;28;20499;-53
2022/08/23 08:50:01;;;;;;;11.18;3.22;;;;;;;37.62;26.83;98079.22;5016904;28;20678;-54
2022/08/23 08:52:37;;;;;;;9.55;3.05;;;;;;;34.74;29.07;98080.63;5015396;28;20037;-54
2022/08/23 08:55:09;;;;;;;9.15;2.65;;;;;;;36.43;28.08;98074.41;5004807;28;20030;-53
2022/08/23 08:57:42;;;;;;;12.80;3.40;;;;;;;36.22;29.16;98071.09;5016306;28;20045;-53
2022/08/23 09:00:12;;;;;;;10.02;2.95;;;;;;;37.15;27.59;98074.53;5015138;28;20034;-52
2022/08/23 09:02:37;;;;;;;12.03;3.33;;;;;;;34.83;30.09;98075.75;5014844;28;20120;-51
2022/08/23 09:05:30;;;;;;;11.75;2.78;;;;;;;36.61;27.73;98076.25;5014892;28;20112;-55
2022/08/23 09:08:07;;;;;;;12.48;3.15;;;;;;;36.18;28.16;98066.31;5016007;28;20759;-51
2022/08/23 09:11:04;;;;;;;10.18;2.92;;;;;;;37.52;26.80;98070.78;5013340;28;20139;-53
2022/08/23 09:13:52;;;;;;;9.57;3.00;;;;;;;35.39;28.92;98068.75;5003484;28;20095;-53
2022/08/23 09:16:38;;;;;;;13.10;3.10;;;;;;;35.51;29.21;98073.22;5014541;28;20067;-52
2022/08/23 09:19:05;;;;;;;11.48;3.28;;;;;;;35.33;28.69;98062.31;5013888;28;20021;-52
2022/08/23 09:21:46;;;;;;;9.88;2.90;;;;;;;35.11;29.15;98064.53;5015313;28;20033;-52
2022/08/23 09:24:12;;;;;;;10.13;2.95;;;;;;;34.62;29.11;98060.63;5014029;28;20026;-52
2022/08/23 09:26:39;;;;;;;11.55;2.95;;;;;;;35.16;28.82;98056.56;5015171;28;20535;-52
2022/08/23 09:29:32;;;;;;;15.05;3.50;;;;;;;33.07;30.85;98051.06;5013734;28;20022;-52
2022/08/23 09:32:03;;;;;;;12.25;3.17;;;;;;;33.13;30.30;98055.66;5015256;28;20041;-52
2022/08/23 09:34:29;;;;;;;13.35;3.08;;;;;;;32.54;30.85;98056.31;5015778;28;20117;-52
2022/08/23 09:37:11;;;;;;;9.23;2.80;;;;;;;36.18;27.86;98053.59;5015800;28;20160;-52
2022/08/23 09:39:40;;;;;;;10.80;3.15;;;;;;;36.02;27.28;98062.31;5014075;28;20099;-53
2022/08/23 09:42:32;;;;;;;14.55;3.58;;;;;;;34.75;28.30;98060.59;5015636;28;20040;-53
2022/08/23 09:44:58;;;;;;;11.30;3.08;;;;;;;35.99;27.86;98049.19;5014402;28;20030;-52
2022/08/23 09:47:33;;;;;;;11.90;3.30;;;;;;;34.46;29.40;98046.53;5013408;28;20040;-52
2022/08/23 09:50:23;;;;;;;15.77;3.45;;;;;;;35.51;28.24;98047.97;5015977;28;20117;-52
2022/08/23 09:52:49;;;;;;;10.32;3.20;;;;;;;35.98;27.50;98042.13;5016220;28;20057;-52
2022/08/23 09:55:31;;;;;;;14.68;3.65;;;;;;;34.54;28.54;98042.75;5011297;28;20408;-52
2022/08/23 09:57:59;;;;;;;13.57;3.00;;;;;;;32.60;30.99;98037.44;5020409;28;20025;-54
2022/08/23 10:00:27;;;;;;;15.25;3.13;;;;;;;35.07;27.88;98039.75;5011468;28;21013;-52
2022/08/23 10:02:56;;;;;;;9.50;2.60;;;;;;;35.27;27.36;98033.34;5014590;28;20075;-52
2022/08/23 10:05:40;;;;;;;14.50;3.50;;;;;;;34.27;29.09;98032.03;5012531;28;20040;-52
2022/08/23 10:08:05;;;;;;;12.30;3.15;;;;;;;33.86;28.55;98030.50;5014438;28;20427;-52
2022/08/23 10:10:45;;;;;;;11.70;2.97;;;;;;;35.68;27.40;98038.22;5014139;28;20035;-51
2022/08/23 10:13:11;;;;;;;13.30;3.15;;;;;;;34.12;29.00;98029.56;5014771;28;20029;-52
2022/08/23 10:16:17;;;;;;;12.07;2.95;;;;;;;32.69;30.61;98040.81;5015358;28;20067;-52
2022/08/23 10:18:58;;;;;;;13.13;3.38;;;;;;;34.18;28.78;98033.31;5014384;28;20029;-51
2022/08/23 10:21:42;;;;;;;18.15;3.65;;;;;;;31.60;31.51;98034.22;5010549;28;20057;-51
2022/08/23 10:24:08;;;;;;;13.63;3.63;;;;;;;33.54;31.05;98027.56;5015413;28;20063;-52
2022/08/23 10:26:38;;;;;;;12.82;3.03;;;;;;;33.46;31.00;98035.91;5011703;28;20046;-52
2022/08/23 10:29:37;;;;;;;13.40;3.10;;;;;;;33.51;30.71;98029.88;5014872;28;20083;-52
2022/08/23 10:32:41;;;;;;;14.57;3.20;;;;;;;35.01;27.97;98031.66;5014013;28;20041;-52
2022/08/23 10:35:28;;;;;;;12.50;3.15;;;;;;;34.96;27.84;98018.78;5013200;28;20204;-55
2022/08/23 10:38:11;;;;;;;10.05;2.80;;;;;;;33.56;29.17;98019.25;5014685;28;20036;-51
2022/08/23 10:41:07;;;;;;;15.57;3.67;;;;;;;33.77;29.88;98010.13;5011137;28;20500;-51
2022/08/23 10:43:52;;;;;;;12.02;3.00;;;;;;;33.14;28.98;98011.41;5016842;28;20065;-52
2022/08/23 10:46:21;;;;;;;15.52;3.42;;;;;;;33.47;30.09;97999.75;5013555;28;20064;-52
2022/08/23 10:48:54;;;;;;;13.43;3.28;;;;;;;32.19;31.60;98007.81;5015227;28;20025;-52
2022/08/23 10:51:40;;;;;;;13.15;3.10;;;;;;;31.48;31.07;98003.44;5014309;28;20037;-52
2022/08/23 10:54:11;;;;;;;11.70;3.00;;;;;;;33.36;31.22;97997.66;5013510;28;20064;-53
2022/08/23 10:56:37;;;;;;;12.65;3.42;;;;;;;31.83;32.37;97998.88;5011558;28;20196;-52
2022/08/23 10:59:15;;;;;;;13.77;3.72;;;;;;;32.77;32.77;97988.47;5014256;28;20796;-52
2022/08/23 11:01:52;;;;;;;13.95;3.65;;;;;;;32.90;31.68;97993.06;5012431;28;20046;-52
2022/08/23 11:04:30;;;;;;;16.23;4.68;;;;;;;34.02;30.44;97985.88;5014514;28;20117;-52
2022/08/23 11:06:59;;;;;;;16.55;3.60;;;;;;;33.17;29.10;97993.94;5011277;28;20535;-52
2022/08/23 11:09:24;;;;;;;14.32;4.00;;;;;;;32.67;29.74;97988.06;5015180;28;20033;-52
2022/08/23 11:12:05;;;;;;;15.27;3.20;;;;;;;33.25;27.89;97987.47;5013982;28;20033;-52
2022/08/23 11:14:30;;;;;;;12.57;2.90;;;;;;;31.99;29.09;97986.94;5014431;28;20268;-51
2022/08/23 11:17:04;;;;;;;17.50;3.60;;;;;;;32.90;30.58;97979.53;5013840;28;20048;-51
2022/08/23 11:19:51;;;;;;;13.23;2.95;;;;;;;32.01;32.43;97979.47;5013134;28;20286;-52
2022/08/23 11:22:24;;;;;;;15.48;3.90;;;;;;;33.28;29.16;97978.97;5012425;28;20577;-52
2022/08/23 11:24:49;;;;;;;12.45;3.38;;;;;;;33.20;30.29;97983.53;5011339;28;20036;-52
2022/08/23 11:27:34;;;;;;;17.50;4.70;;;;;;;33.28;31.04;97987.91;5012345;28;20041;-52
2022/08/23 11:30:30;;;;;;;19.67;4.15;;;;;;;31.16;31.15;97986.81;5012683;28;20765;-53
2022/08/23 11:33:01;;;;;;;14.48;3.05;;;;;;;32.35;29.70;97982.31;5012603;28;20136;-53
2022/08/23 11:35:41;;;;;;;16.00;3.03;;;;;;;31.24;31.63;97983.13;5013121;28;20037;-52
2022/08/23 11:38:07;;;;;;;15.52;3.30;;;;;;;31.13;31.13;97987.19;5009848;28;20167;-52